Alpena, MI

3:19 PM EDT on July 01, 2015 (GMT -0400)
APRSWXNET | | Change Station
CLOSE
Current Station
Personal Weather Station
Location: Alpena, MI
Elevation: 593 ft
Nearby Weather Stations

Elev 593 ft 45.05 °N, 83.45 °W | Updated 33 minutes ago

Overcast
Overcast
63 °F
Feels Like 63 °F
N
2
Wind Variable Wind from WNW
Gusts 10.0 mph

Today
High -- | Low -- °F
--% Chance of Precip.
Yesterday
High -- | Low -- °F
Precip. -- in
5:50 AM 9:24 PM
Full, 100% visible
Pressure 29.92 in
Visibility 10.0 miles
Clouds Mostly Cloudy 1300 ft
Overcast 1800 ft
Dew Point 58 °F
Humidity 85%
Rainfall in
Snow Depth Not available.
UV 3 out of 12
Pollen 4.20 out of 12
Air Quality Not available.
Flu Activity Not available.
METAR KAPN 011854Z AUTO 29006KT 10SM BKN013 OVC018 17/13 A2992 RMK AO2 SLP131 T01670133

More Conditions Fewer Conditions

Pressure 29.92 in
Visibility 10.0 miles
Clouds Mostly Cloudy 1300 ft
Overcast 1800 ft
Dew Point 58 °F
Humidity 85%
Rainfall in
Snow Depth Not available.
UV 3 out of 12
Pollen 4.20 out of 12
Air Quality Not available.
Flu Activity Not available.
METAR KAPN 011854Z AUTO 29006KT 10SM BKN013 OVC018 17/13 A2992 RMK AO2 SLP131 T01670133

More Conditions Fewer Conditions

Nowcast | as of 3:00 PM EDT on July 1, 2015

At 4 PM...mostly cloudy. Temperature 65. Northwest winds 9 mph. At 6 PM...partly cloudy. Temperature 67. Northwest winds 9 mph. At 8 PM...partly cloudy. Temperature 64. Northwest winds 9 mph. At 10 PM...mostly clear. Temperature 59. Northwest winds 8 mph.

×

10-Day Weather Forecast

×

Almanac

Astronomy

Jul. 01, 2015 Rise Set
Actual Time
Civil Twilight
Nautical Twilight
Astronomical Twilight
Moon
Length of Visible Light
Length of Day
Tomorrow will be .
, % of the Moon is Illuminated

Today's Extremes

State Highs State Lows

Community

WunderPhotos

Upload Photos

1,834,243 photos uploaded!

WunderBlogs® & News

Nearby

Air Quality

  Air Quality AQ Index Pollutant
Not available.

Snow Depth

Station Depth Elevation

Earthquake Activity

City Distance Mag. Time & Date
Minimum magnitude displayed is 2.5.

Coastal Water Temperatures

Place Temperature

Stations

Nearby Weather Stations

Station Location Temp. Windchill Dew Point Humidity Wind Precip. Elev Updated Type